createdAt,value
2022-08-19T00:00:11.236Z,97210.81
2022-08-19T00:02:39.143Z,97215.69
2022-08-19T00:05:20.592Z,97207.84
2022-08-19T00:07:49.528Z,97203.13
2022-08-19T00:10:19.431Z,97204.00
2022-08-19T00:12:47.388Z,97217.28
2022-08-19T00:15:19.864Z,97204.47
2022-08-19T00:17:48.563Z,97212.06
2022-08-19T00:20:20.892Z,97207.19
2022-08-19T00:22:49.458Z,97205.25
2022-08-19T00:25:17.807Z,97218.00
2022-08-19T00:27:45.645Z,97206.81
2022-08-19T00:30:13.796Z,97209.84
2022-08-19T00:32:41.665Z,97209.56
2022-08-19T00:35:10.750Z,97207.13
2022-08-19T00:37:44.176Z,97200.31
2022-08-19T00:40:13.683Z,97188.59
2022-08-19T00:42:42.296Z,97190.50
2022-08-19T00:45:22.008Z,97177.72
2022-08-19T00:47:50.070Z,97171.97
2022-08-19T00:50:21.119Z,97166.91
2022-08-19T00:52:52.354Z,97173.69
2022-08-19T00:55:25.880Z,97174.22
2022-08-19T00:58:02.527Z,97175.22
2022-08-19T01:00:32.608Z,97174.56
2022-08-19T01:03:00.606Z,97179.19
2022-08-19T01:05:30.249Z,97182.97
2022-08-19T01:08:01.815Z,97190.97
2022-08-19T01:10:36.666Z,97190.50
2022-08-19T01:13:05.946Z,97197.63
2022-08-19T01:15:43.139Z,97198.41
2022-08-19T01:18:14.768Z,97194.34
2022-08-19T01:20:44.145Z,97195.94
2022-08-19T01:23:12.980Z,97192.13
2022-08-19T01:25:50.931Z,97188.59
2022-08-19T01:28:40.073Z,97185.88
2022-08-19T01:31:27.158Z,97181.50
2022-08-19T01:33:58.432Z,97183.41
2022-08-19T01:36:35.065Z,97190.69
2022-08-19T01:39:08.611Z,97188.41
2022-08-19T01:41:36.967Z,97186.50
2022-08-19T01:44:17.774Z,97179.78
2022-08-19T01:46:49.515Z,97184.69
2022-08-19T01:49:20.730Z,97188.50
2022-08-19T01:51:50.488Z,97187.09
2022-08-19T01:54:23.166Z,97185.53
2022-08-19T01:57:07.744Z,97180.19
2022-08-19T01:59:37.512Z,97177.75
2022-08-19T02:02:09.743Z,97178.63
2022-08-19T02:04:39.086Z,97177.47
2022-08-19T02:07:09.147Z,97192.34
2022-08-19T02:09:37.248Z,97189.84
2022-08-19T02:12:08.629Z,97197.94
2022-08-19T02:14:37.680Z,97203.19
2022-08-19T02:17:05.589Z,97205.19
2022-08-19T02:19:33.812Z,97196.19
2022-08-19T02:22:01.984Z,97188.88
2022-08-19T02:24:29.812Z,97190.56
2022-08-19T02:26:58.328Z,97182.06
2022-08-19T02:29:26.154Z,97183.38
2022-08-19T02:31:54.120Z,97194.69
2022-08-19T02:34:22.022Z,97180.63
2022-08-19T02:36:51.743Z,97183.00
2022-08-19T02:39:20.417Z,97183.19
2022-08-19T02:41:48.293Z,97177.31
2022-08-19T02:44:29.689Z,97178.72
2022-08-19T02:47:00.359Z,97172.72
2022-08-19T02:49:28.209Z,97182.13
2022-08-19T02:51:56.081Z,97179.91
2022-08-19T02:54:23.850Z,97187.75
2022-08-19T02:56:51.649Z,97183.66
2022-08-19T02:59:20.301Z,97180.47
2022-08-19T03:01:50.945Z,97186.94
2022-08-19T03:04:20.297Z,97178.88
2022-08-19T03:06:49.492Z,97181.84
2022-08-19T03:09:20.614Z,97180.03
2022-08-19T03:11:48.689Z,97183.41
2022-08-19T03:14:20.471Z,97193.94
2022-08-19T03:16:53.389Z,97196.50
2022-08-19T03:19:22.471Z,97196.50
2022-08-19T03:21:51.580Z,97187.78
2022-08-19T03:24:21.168Z,97194.34
2022-08-19T03:26:53.574Z,97194.59
2022-08-19T03:29:30.294Z,97202.50
2022-08-19T03:32:02.030Z,97195.16
2022-08-19T03:34:35.625Z,97207.03
2022-08-19T03:37:10.569Z,97205.13
2022-08-19T03:39:40.340Z,97201.28
2022-08-19T03:42:38.186Z,97192.44
2022-08-19T03:44:56.709Z,97188.94
2022-08-19T03:47:24.512Z,97193.22
2022-08-19T03:49:52.437Z,97194.97
2022-08-19T03:52:20.398Z,97186.59
2022-08-19T03:54:48.216Z,97193.03
2022-08-19T03:57:16.022Z,97196.06
2022-08-19T03:59:44.544Z,97198.50
2022-08-19T04:02:13.723Z,97202.88
2022-08-19T04:04:44.391Z,97207.78
2022-08-19T04:07:17.131Z,97213.97
2022-08-19T04:09:45.100Z,97210.47
2022-08-19T04:12:12.951Z,97217.13
2022-08-19T04:14:40.844Z,97217.44
2022-08-19T04:17:08.732Z,97217.75
2022-08-19T04:19:37.628Z,97212.81
2022-08-19T04:22:06.079Z,97211.16
2022-08-19T04:24:36.286Z,97207.97
2022-08-19T04:27:07.137Z,97209.88
2022-08-19T04:29:35.149Z,97211.50
2022-08-19T04:32:09.437Z,97206.38
2022-08-19T04:35:02.423Z,97200.59
2022-08-19T04:37:35.058Z,97201.72
2022-08-19T04:40:26.107Z,97195.91
2022-08-19T04:42:54.683Z,97194.88
2022-08-19T04:45:23.260Z,97198.69
2022-08-19T04:47:58.399Z,97197.72
2022-08-19T04:50:46.039Z,97204.28
2022-08-19T04:53:13.817Z,97208.06
2022-08-19T04:55:43.554Z,97206.78
2022-08-19T04:58:11.376Z,97214.19
2022-08-19T05:00:40.996Z,97211.47
2022-08-19T05:03:09.534Z,97216.38
2022-08-19T05:05:44.668Z,97218.75
2022-08-19T05:08:19.511Z,97221.41
2022-08-19T05:10:59.638Z,97226.75
2022-08-19T05:13:28.180Z,97229.38
2022-08-19T05:15:58.652Z,97231.03
2022-08-19T05:18:46.240Z,97233.81
2022-08-19T05:21:37.369Z,97236.88
2022-08-19T05:24:10.495Z,97235.88
2022-08-19T05:26:40.533Z,97238.25
2022-08-19T05:29:10.281Z,97251.31
2022-08-19T05:31:42.283Z,97262.09
2022-08-19T05:34:20.448Z,97259.38
2022-08-19T05:36:49.623Z,97277.72
2022-08-19T05:39:21.504Z,97283.72
2022-08-19T05:41:58.170Z,97292.84
2022-08-19T05:44:32.691Z,97294.47
2022-08-19T05:47:03.997Z,97309.44
2022-08-19T05:49:34.053Z,97302.03
2022-08-19T05:52:12.815Z,97301.56
2022-08-19T05:54:42.569Z,97302.38
2022-08-19T05:57:11.735Z,97291.28
2022-08-19T05:59:41.221Z,97294.75
2022-08-19T06:02:10.205Z,97297.44
2022-08-19T06:04:38.706Z,97294.38
2022-08-19T06:07:12.298Z,97293.66
2022-08-19T06:09:43.772Z,97301.16
2022-08-19T06:12:32.856Z,97292.00
2022-08-19T06:15:02.844Z,97299.50
2022-08-19T06:17:31.929Z,97294.09
2022-08-19T06:20:16.256Z,97300.31
2022-08-19T06:22:49.750Z,97299.66
2022-08-19T06:25:18.264Z,97291.28
2022-08-19T06:28:11.866Z,97290.53
2022-08-19T06:30:34.591Z,97294.66
2022-08-19T06:33:02.408Z,97286.63
2022-08-19T06:35:30.633Z,97297.84
2022-08-19T06:37:58.554Z,97290.13
2022-08-19T06:40:28.485Z,97277.28
2022-08-19T06:42:57.383Z,97289.88
2022-08-19T06:45:35.498Z,97299.31
2022-08-19T06:48:08.434Z,97291.84
2022-08-19T06:50:36.842Z,97293.75
2022-08-19T06:53:08.312Z,97296.19
2022-08-19T06:55:36.344Z,97301.47
2022-08-19T06:58:06.110Z,97308.13
2022-08-19T07:00:34.834Z,97306.41
2022-08-19T07:03:07.647Z,97315.38
2022-08-19T07:05:45.814Z,97311.69
2022-08-19T07:08:15.005Z,97304.50
2022-08-19T07:10:47.543Z,97298.00
2022-08-19T07:13:15.582Z,97298.81
2022-08-19T07:15:43.468Z,97306.06
2022-08-19T07:18:11.626Z,97310.47
2022-08-19T07:20:41.963Z,97314.09
2022-08-19T07:23:16.653Z,97311.06
2022-08-19T07:25:51.365Z,97311.47
2022-08-19T07:28:24.704Z,97319.38
2022-08-19T07:30:53.923Z,97316.91
2022-08-19T07:33:23.281Z,97319.72
2022-08-19T07:35:51.165Z,97316.88
2022-08-19T07:38:19.079Z,97317.31
2022-08-19T07:40:47.078Z,97323.81
2022-08-19T07:43:17.828Z,97326.97
2022-08-19T07:45:47.936Z,97316.88
2022-08-19T07:48:15.963Z,97322.25
2022-08-19T07:50:44.289Z,97325.72
2022-08-19T07:53:13.361Z,97317.94
2022-08-19T07:55:43.836Z,97315.31
2022-08-19T07:58:18.474Z,97326.50
2022-08-19T08:00:49.552Z,97324.72
2022-08-19T08:03:42.116Z,97323.22
2022-08-19T08:06:30.681Z,97329.22
2022-08-19T08:12:35.113Z,97329.53
2022-08-19T08:15:08.996Z,97332.94
2022-08-19T08:17:49.198Z,97340.22
2022-08-19T08:20:20.491Z,97336.78
2022-08-19T08:23:07.355Z,97336.91
2022-08-19T08:25:37.239Z,97342.69
2022-08-19T08:28:06.285Z,97332.06
2022-08-19T08:30:36.789Z,97348.38
2022-08-19T08:33:05.369Z,97346.78
2022-08-19T08:35:34.391Z,97340.22
2022-08-19T08:38:04.729Z,97345.06
2022-08-19T08:41:00.024Z,97339.03
2022-08-19T08:43:36.822Z,97349.09
2022-08-19T08:46:13.219Z,97339.03
2022-08-19T08:48:52.595Z,97343.88
2022-08-19T08:52:03.064Z,97343.09
2022-08-19T08:54:49.091Z,97344.78
2022-08-19T08:57:40.889Z,97351.97
2022-08-19T09:00:17.530Z,97346.50
2022-08-19T09:02:50.518Z,97332.66
2022-08-19T09:05:25.989Z,97325.22
2022-08-19T09:08:35.345Z,97334.31
2022-08-19T09:11:15.603Z,97344.09
2022-08-19T09:14:06.078Z,97340.09
2022-08-19T09:16:34.482Z,97338.75
2022-08-19T09:19:08.137Z,97347.53
2022-08-19T09:21:36.271Z,97336.53
2022-08-19T09:24:07.309Z,97342.34
2022-08-19T09:26:47.552Z,97348.38
2022-08-19T09:29:22.692Z,97344.22
2022-08-19T09:31:51.123Z,97352.25
2022-08-19T09:34:22.112Z,97350.44
2022-08-19T09:36:54.673Z,97346.50
2022-08-19T09:39:23.432Z,97352.50
2022-08-19T09:41:51.575Z,97349.94
2022-08-19T09:44:23.069Z,97351.41
2022-08-19T09:46:52.028Z,97347.91
2022-08-19T09:49:22.877Z,97358.88
2022-08-19T09:51:55.446Z,97353.75
2022-08-19T09:54:25.225Z,97353.19
2022-08-19T09:56:54.695Z,97356.16
2022-08-19T09:59:24.429Z,97359.91
2022-08-19T10:01:52.807Z,97357.22
2022-08-19T10:04:22.424Z,97358.09
2022-08-19T10:06:53.889Z,97347.00
2022-08-19T10:09:33.570Z,97359.94
2022-08-19T10:12:06.072Z,97363.31
2022-08-19T10:14:34.781Z,97367.47
2022-08-19T10:17:17.451Z,97362.84
2022-08-19T10:19:55.020Z,97351.69
2022-08-19T10:22:25.660Z,97363.28
2022-08-19T10:24:54.613Z,97361.69
2022-08-19T10:27:22.680Z,97352.72
2022-08-19T10:29:50.593Z,97349.78
2022-08-19T10:32:18.466Z,97346.81
2022-08-19T10:35:05.326Z,97352.88
2022-08-19T10:37:34.003Z,97352.94
2022-08-19T10:40:05.177Z,97351.03
2022-08-19T10:42:33.370Z,97339.63
2022-08-19T10:45:01.475Z,97330.03
2022-08-19T10:47:31.864Z,97325.94
2022-08-19T10:50:18.379Z,97323.50
2022-08-19T10:52:50.765Z,97316.69
2022-08-19T10:55:41.872Z,97303.94
2022-08-19T10:58:24.804Z,97302.63
2022-08-19T11:00:56.485Z,97302.66
2022-08-19T11:03:26.632Z,97302.66
2022-08-19T11:06:07.062Z,97302.13
2022-08-19T11:08:38.674Z,97303.78
2022-08-19T11:11:09.087Z,97311.69
2022-08-19T11:13:42.636Z,97309.25
2022-08-19T11:16:14.868Z,97311.69
2022-08-19T11:18:48.035Z,97305.16
2022-08-19T11:21:25.285Z,97307.06
2022-08-19T11:23:57.706Z,97308.69
2022-08-19T11:26:26.741Z,97299.16
2022-08-19T11:28:56.529Z,97294.75
2022-08-19T11:31:32.122Z,97298.59
2022-08-19T11:34:04.085Z,97307.88
2022-08-19T11:36:34.351Z,97302.69
2022-08-19T11:39:06.517Z,97312.22
2022-08-19T11:41:34.806Z,97310.03
2022-08-19T11:44:04.258Z,97318.25
2022-08-19T11:46:33.069Z,97314.41
2022-08-19T11:49:03.968Z,97318.78
2022-08-19T11:51:33.402Z,97307.06
2022-08-19T11:54:02.427Z,97308.69
2022-08-19T11:56:30.384Z,97308.94
2022-08-19T11:58:58.579Z,97298.88
2022-08-19T12:01:28.205Z,97310.88
2022-08-19T12:03:57.804Z,97300.25
2022-08-19T12:06:31.152Z,97302.41
2022-08-19T12:09:07.231Z,97311.41
2022-08-19T12:11:35.273Z,97308.97
2022-08-19T12:14:03.679Z,97306.19
2022-08-19T12:16:33.697Z,97304.88
2022-08-19T12:19:05.225Z,97307.00
2022-08-19T12:21:36.468Z,97297.44
2022-08-19T12:24:07.318Z,97287.56
2022-08-19T12:26:53.488Z,97279.34
2022-08-19T12:29:29.020Z,97282.56
2022-08-19T12:32:03.809Z,97281.81
2022-08-19T12:34:33.336Z,97293.25
2022-08-19T12:37:05.616Z,97285.16
2022-08-19T12:39:40.066Z,97295.44
2022-08-19T12:42:09.742Z,97293.19
2022-08-19T12:44:41.630Z,97291.78
2022-08-19T12:47:12.062Z,97288.19
2022-08-19T12:49:54.963Z,97287.84
2022-08-19T12:52:28.088Z,97279.38
2022-08-19T12:54:58.281Z,97291.59
2022-08-19T12:57:32.857Z,97289.19
2022-08-19T13:00:13.578Z,97292.66
2022-08-19T13:02:45.207Z,97299.50
2022-08-19T13:05:21.859Z,97299.66
2022-08-19T13:07:53.296Z,97299.06
2022-08-19T13:10:23.037Z,97307.34
2022-08-19T13:12:52.878Z,97313.13
2022-08-19T13:15:24.000Z,97306.22
2022-08-19T13:17:57.123Z,97292.06
2022-08-19T13:20:25.925Z,97294.94
2022-08-19T13:22:54.121Z,97296.16
2022-08-19T13:25:22.553Z,97295.63
2022-08-19T13:27:51.810Z,97297.53
2022-08-19T13:30:39.678Z,97295.09
2022-08-19T13:33:11.896Z,97294.84
2022-08-19T13:35:58.127Z,97298.59
2022-08-19T13:38:26.531Z,97308.59
2022-08-19T13:40:56.269Z,97316.53
2022-08-19T13:43:27.920Z,97301.97
2022-08-19T13:45:57.607Z,97309.41
2022-08-19T13:48:27.946Z,97306.38
2022-08-19T13:50:56.709Z,97306.91
2022-08-19T13:53:25.619Z,97302.75
2022-08-19T13:55:54.694Z,97302.47
2022-08-19T13:58:23.714Z,97314.00
2022-08-19T14:00:51.680Z,97303.72
2022-08-19T14:03:19.496Z,97298.72
2022-08-19T14:05:47.771Z,97302.44
2022-08-19T14:08:15.923Z,97298.53
2022-08-19T14:10:45.734Z,97297.78
2022-08-19T14:13:19.508Z,97299.06
2022-08-19T14:15:48.466Z,97296.81
2022-08-19T14:18:20.462Z,97294.06
2022-08-19T14:20:48.451Z,97306.94
2022-08-19T14:23:16.259Z,97302.81
2022-08-19T14:25:44.466Z,97301.97
2022-08-19T14:28:12.241Z,97301.41
2022-08-19T14:30:40.202Z,97301.41
2022-08-19T14:33:09.491Z,97294.78
2022-08-19T14:35:38.049Z,97297.28
2022-08-19T14:38:07.726Z,97295.56
2022-08-19T14:40:35.789Z,97292.72
2022-08-19T14:43:05.538Z,97287.56
2022-08-19T14:45:37.319Z,97291.34
2022-08-19T14:48:12.585Z,97285.66
2022-08-19T14:50:47.511Z,97276.69
2022-08-19T14:53:17.888Z,97282.41
2022-08-19T14:55:47.356Z,97282.34
2022-08-19T14:58:29.042Z,97284.47
2022-08-19T15:01:01.083Z,97277.34
2022-08-19T15:03:30.374Z,97279.56
2022-08-19T15:06:00.091Z,97274.19
2022-08-19T15:08:30.579Z,97268.59
2022-08-19T15:10:59.870Z,97273.66
2022-08-19T15:13:29.945Z,97269.31
2022-08-19T15:15:58.197Z,97263.53
2022-08-19T15:18:26.210Z,97269.84
2022-08-19T15:20:55.977Z,97272.59
2022-08-19T15:23:32.683Z,97269.66
2022-08-19T15:26:00.425Z,97280.22
2022-08-19T15:28:28.336Z,97272.16
2022-08-19T15:30:56.116Z,97272.97
2022-08-19T15:33:23.945Z,97276.97
2022-08-19T15:35:52.224Z,97275.56
2022-08-19T15:38:24.485Z,97280.94
2022-08-19T15:40:52.410Z,97277.34
2022-08-19T15:43:24.190Z,97284.28
2022-08-19T15:45:51.964Z,97280.41
2022-08-19T15:48:19.765Z,97286.66
2022-08-19T15:50:47.549Z,97291.38
2022-08-19T15:53:16.050Z,97286.44
2022-08-19T15:55:46.209Z,97293.63
2022-08-19T15:58:34.089Z,97292.72
2022-08-19T16:01:26.976Z,97294.81
2022-08-19T16:04:16.288Z,97291.38
2022-08-19T16:06:57.093Z,97291.91
2022-08-19T16:09:29.792Z,97299.31
2022-08-19T16:12:02.381Z,97294.75
2022-08-19T16:14:33.463Z,97286.81
2022-08-19T16:17:02.060Z,97291.56
2022-08-19T16:19:31.044Z,97285.34
2022-08-19T16:21:58.872Z,97298.16
2022-08-19T16:24:28.545Z,97292.16
2022-08-19T16:26:56.966Z,97292.78
2022-08-19T16:29:34.572Z,97293.88
2022-08-19T16:32:11.902Z,97295.78
2022-08-19T16:34:41.832Z,97295.19
2022-08-19T16:37:10.700Z,97293.84
2022-08-19T16:39:39.409Z,97297.41
2022-08-19T16:42:11.661Z,97295.78
2022-08-19T16:44:45.772Z,97302.88
2022-08-19T16:47:16.386Z,97315.25
2022-08-19T16:49:53.438Z,97320.47
2022-08-19T16:52:26.325Z,97321.56
2022-08-19T16:54:54.895Z,97325.72
2022-08-19T16:57:23.939Z,97340.84
2022-08-19T16:59:52.561Z,97337.88
2022-08-19T17:02:23.318Z,97331.91
2022-08-19T17:04:57.421Z,97347.59
2022-08-19T17:07:32.287Z,97341.88
2022-08-19T17:10:04.782Z,97343.03
2022-08-19T17:12:32.682Z,97351.56
2022-08-19T17:15:08.216Z,97352.13
2022-08-19T17:17:37.398Z,97351.31
2022-08-19T17:20:07.437Z,97345.06
2022-08-19T17:22:37.131Z,97350.53
2022-08-19T17:25:05.373Z,97341.25
2022-08-19T17:27:33.215Z,97350.28
2022-08-19T17:30:06.811Z,97351.69
2022-08-19T17:32:35.151Z,97350.59
2022-08-19T17:35:04.842Z,97350.66
2022-08-19T17:37:34.564Z,97352.84
2022-08-19T17:40:08.985Z,97352.31
2022-08-19T17:42:36.934Z,97352.03
2022-08-19T17:45:06.575Z,97353.97
2022-08-19T17:47:36.695Z,97358.09
2022-08-19T17:50:12.840Z,97359.19
2022-08-19T17:52:40.648Z,97354.28
2022-08-19T17:55:10.386Z,97354.00
2022-08-19T17:57:46.065Z,97350.97
2022-08-19T18:00:17.064Z,97357.53
2022-08-19T18:02:52.327Z,97355.91
2022-08-19T18:05:29.700Z,97361.66
2022-08-19T18:07:59.872Z,97355.09
2022-08-19T18:10:34.909Z,97367.09
2022-08-19T18:13:10.830Z,97363.81
2022-08-19T18:15:45.885Z,97372.03
2022-08-19T18:18:14.991Z,97370.97
2022-08-19T18:20:44.604Z,97370.13
2022-08-19T18:23:41.225Z,97367.38
2022-08-19T18:26:02.330Z,97367.13
2022-08-19T18:28:31.107Z,97371.75
2022-08-19T18:30:59.273Z,97370.66
2022-08-19T18:33:27.227Z,97374.22
2022-08-19T18:35:55.304Z,97378.31
2022-08-19T18:38:42.095Z,97385.41
2022-08-19T18:41:29.631Z,97387.88
2022-08-19T18:44:16.151Z,97386.19
2022-08-19T18:47:02.811Z,97389.47
2022-08-19T18:49:34.769Z,97398.47
2022-08-19T18:52:03.663Z,97394.63
2022-08-19T18:54:31.450Z,97401.47
2022-08-19T18:56:59.473Z,97397.63
2022-08-19T18:59:29.346Z,97399.25
2022-08-19T19:01:59.537Z,97394.91
2022-08-19T19:04:34.191Z,97394.63
2022-08-19T19:07:01.969Z,97400.91
2022-08-19T19:09:29.941Z,97414.81
2022-08-19T19:12:03.058Z,97410.97
2022-08-19T19:14:50.446Z,97412.41
2022-08-19T19:17:18.658Z,97420.00
2022-08-19T19:19:46.516Z,97414.25
2022-08-19T19:22:23.709Z,97421.34
2022-08-19T19:24:54.126Z,97419.72
2022-08-19T19:27:22.730Z,97421.34
2022-08-19T19:29:52.568Z,97421.09
2022-08-19T19:32:29.453Z,97430.13
2022-08-19T19:34:57.447Z,97430.13
2022-08-19T19:37:25.333Z,97430.66
2022-08-19T19:39:53.209Z,97423.00
2022-08-19T19:42:27.212Z,97429.28
2022-08-19T19:44:56.281Z,97425.47
2022-08-19T19:47:25.688Z,97428.44
2022-08-19T19:52:46.063Z,97423.78
2022-08-19T19:55:18.442Z,97432.50
2022-08-19T19:57:48.821Z,97434.16
2022-08-19T20:00:18.902Z,97432.81
2022-08-19T20:02:50.165Z,97438.53
2022-08-19T20:05:23.085Z,97440.63
2022-08-19T20:08:12.520Z,97444.72
2022-08-19T20:10:42.982Z,97443.09
2022-08-19T20:13:15.546Z,97442.19
2022-08-19T20:15:43.740Z,97442.00
2022-08-19T20:18:14.600Z,97448.78
2022-08-19T20:20:43.607Z,97445.03
2022-08-19T20:23:11.415Z,97448.78
2022-08-19T20:25:39.720Z,97457.53
2022-08-19T20:28:07.560Z,97446.03
2022-08-19T20:30:35.477Z,97451.00
2022-08-19T20:33:06.910Z,97446.63
2022-08-19T20:35:36.911Z,97443.91
2022-08-19T20:38:06.580Z,97457.53
2022-08-19T20:40:35.924Z,97447.47
2022-08-19T20:43:09.360Z,97444.09
2022-08-19T20:45:38.119Z,97459.59
2022-08-19T20:48:08.092Z,97449.84
2022-08-19T20:50:37.220Z,97445.22
2022-08-19T20:53:17.067Z,97463.84
2022-08-19T20:55:49.293Z,97457.13
2022-08-19T20:58:21.251Z,97462.22
2022-08-19T21:00:50.716Z,97454.59
2022-08-19T21:03:24.568Z,97455.91
2022-08-19T21:05:52.861Z,97461.38
2022-08-19T21:08:20.875Z,97461.66
2022-08-19T21:10:52.080Z,97472.06
2022-08-19T21:13:21.228Z,97467.44
2022-08-19T21:15:49.723Z,97470.63
2022-08-19T21:18:20.724Z,97473.03
2022-08-19T21:20:50.175Z,97479.78
2022-08-19T21:23:22.391Z,97471.81
2022-08-19T21:25:54.562Z,97486.41
2022-08-19T21:28:35.066Z,97470.44
2022-08-19T21:31:06.708Z,97473.47
2022-08-19T21:33:34.556Z,97482.03
2022-08-19T21:36:03.109Z,97476.59
2022-08-19T21:38:31.389Z,97474.63
2022-08-19T21:41:00.976Z,97469.50
2022-08-19T21:43:35.826Z,97479.88
2022-08-19T21:46:04.205Z,97474.91
2022-08-19T21:48:32.405Z,97489.81
2022-08-19T21:51:00.188Z,97485.72
2022-08-19T21:53:31.697Z,97495.88
2022-08-19T21:56:06.455Z,97500.28
2022-08-19T21:58:36.520Z,97490.97
2022-08-19T22:01:07.888Z,97501.47
2022-08-19T22:03:37.651Z,97498.19
2022-08-19T22:06:06.825Z,97508.53
2022-08-19T22:08:34.615Z,97504.53
2022-08-19T22:11:04.350Z,97508.44
2022-08-19T22:13:40.105Z,97512.81
2022-08-19T22:16:10.041Z,97518.38
2022-08-19T22:18:38.048Z,97510.44
2022-08-19T22:21:11.234Z,97519.44
2022-08-19T22:23:44.407Z,97522.88
2022-08-19T22:26:17.155Z,97522.72
2022-08-19T22:28:45.108Z,97519.91
2022-08-19T22:31:15.644Z,97516.09
2022-08-19T22:33:43.912Z,97525.28
2022-08-19T22:36:11.825Z,97521.03
2022-08-19T22:38:39.971Z,97527.03
2022-08-19T22:41:08.199Z,97530.88
2022-08-19T22:43:37.567Z,97531.72
2022-08-19T22:46:06.581Z,97546.81
2022-08-19T22:48:46.237Z,97546.81
2022-08-19T22:51:34.105Z,97558.06
2022-08-19T22:54:03.186Z,97541.34
2022-08-19T22:56:31.067Z,97544.72
2022-08-19T22:58:58.965Z,97541.03
2022-08-19T23:01:30.228Z,97543.25
2022-08-19T23:03:59.693Z,97545.91
2022-08-19T23:06:33.451Z,97539.63
2022-08-19T23:09:05.352Z,97533.44
2022-08-19T23:11:42.106Z,97530.88
2022-08-19T23:14:12.567Z,97535.56
2022-08-19T23:16:41.862Z,97531.59
2022-08-19T23:19:10.530Z,97528.81
2022-08-19T23:21:42.720Z,97526.53
2022-08-19T23:24:11.440Z,97526.53
2022-08-19T23:26:59.938Z,97530.50
2022-08-19T23:29:47.318Z,97528.81
2022-08-19T23:32:19.001Z,97528.72
2022-08-19T23:34:47.277Z,97532.25
2022-08-19T23:37:15.721Z,97534.13
2022-08-19T23:39:44.609Z,97528.97
2022-08-19T23:42:13.641Z,97526.50
2022-08-19T23:44:52.281Z,97531.59
2022-08-19T23:47:21.480Z,97526.41
2022-08-19T23:49:49.478Z,97528.69
2022-08-19T23:52:17.286Z,97532.59
2022-08-19T23:54:45.112Z,97533.56
2022-08-19T23:57:14.626Z,97535.06
2022-08-19T23:59:45.605Z,97539.94
